YSTW

Tamworth Airport

Tamworth, Australia
TAF YSTW 210454Z 2106/2124 14012KT CAVOK FM211000 12008KT CAVOK PROB30 2115/2122 5000 BR
Issued Valid From Valid To
Apr-21 @ 04:54 UTC
(5 hours ago)
Apr-21 @ 06:00 UTC
(4 hours ago)
Apr-22 @ 00:00 UTC
(in 14 hours)
Apr-21 @ 06:00 to Apr-21 @ 10:00
TAF YSTW 210454Z 2106/2124 14012KT CAVOK
Wind Visibility Clouds Conditions
140° at 12 knots 10,000+ meters
  • No significant clouds
From Apr-21 @ 10:00 to Apr-22 @ 00:00
FM211000 12008KT CAVOK
Wind Visibility Clouds Conditions
120° at 8 knots 10,000+ meters
  • No significant clouds
Probable  (Probability 30%) Apr-21 @ 15:00 to Apr-21 @ 22:00
PROB30 2115/2122 5000 BR
Visibility Conditions
5,005 meters
  • Mist
TAF YSTW 210454Z 2106/2124 14012KT CAVOK FM211000 12008KT CAVOK PROB30 2115/2122 5000 BR
Issued Apr-21 @ 04:54 UTC
(5 hours ago)
Valid From Apr-21 @ 06:00 UTC
(4 hours ago)
Valid To Apr-22 @ 00:00 UTC
(in 14 hours)
Apr-21 @ 06:00 - Apr-21 @ 10:00
Wind Visibility
140° at 12 knots 10,000+ meters
Clouds
  • No significant clouds
Conditions
From Apr-21 @ 10:00 - Apr-22 @ 00:00
Wind Visibility
120° at 8 knots 10,000+ meters
Clouds
  • No significant clouds
Conditions
Probability 30% Probable Apr-21 @ 15:00 - Apr-21 @ 22:00
Conditions
  • Mist